sensor_id;sensor_type;location;lat;lon;timestamp;pressure;altitude;pressure_sealevel;temperature;humidity
59787;BME280;45672;51.612;5.536;2023-01-31T00:01:13;102276.88;;;2.53;100.00
59787;BME280;45672;51.612;5.536;2023-01-31T00:03:40;102278.81;;;2.49;100.00
59787;BME280;45672;51.612;5.536;2023-01-31T00:08:35;102284.19;;;2.46;100.00
59787;BME280;45672;51.612;5.536;2023-01-31T00:11:00;102287.75;;;2.45;100.00
59787;BME280;45672;51.612;5.536;2023-01-31T00:13:27;102289.59;;;2.43;100.00
59787;BME280;45672;51.612;5.536;2023-01-31T00:15:55;102293.97;;;2.42;100.00
59787;BME280;45672;51.612;5.536;2023-01-31T00:18:20;102290.66;;;2.39;100.00
59787;BME280;45672;51.612;5.536;2023-01-31T00:20:46;102292.41;;;2.38;100.00
59787;BME280;45672;51.612;5.536;2023-01-31T00:23:11;102289.78;;;2.38;100.00
59787;BME280;45672;51.612;5.536;2023-01-31T00:25:36;102299.56;;;2.35;100.00
59787;BME280;45672;51.612;5.536;2023-01-31T00:28:02;102306.72;;;2.31;100.00
59787;BME280;45672;51.612;5.536;2023-01-31T00:30:27;102294.50;;;2.30;100.00
59787;BME280;45672;51.612;5.536;2023-01-31T00:32:52;102299.88;;;2.27;100.00
59787;BME280;45672;51.612;5.536;2023-01-31T00:35:18;102300.81;;;2.26;100.00
59787;BME280;45672;51.612;5.536;2023-01-31T00:37:43;102298.38;;;2.21;100.00
59787;BME280;45672;51.612;5.536;2023-01-31T00:40:09;102305.25;;;2.24;100.00
59787;BME280;45672;51.612;5.536;2023-01-31T00:42:34;102299.09;;;2.25;100.00
59787;BME280;45672;51.612;5.536;2023-01-31T00:45:00;102284.25;;;2.24;100.00
59787;BME280;45672;51.612;5.536;2023-01-31T00:47:25;102282.47;;;2.24;100.00
59787;BME280;45672;51.612;5.536;2023-01-31T00:49:50;102292.19;;;2.22;100.00
59787;BME280;45672;51.612;5.536;2023-01-31T00:52:15;102286.19;;;2.20;100.00
59787;BME280;45672;51.612;5.536;2023-01-31T00:54:41;102285.22;;;2.21;100.00
59787;BME280;45672;51.612;5.536;2023-01-31T00:57:07;102290.56;;;2.20;100.00
59787;BME280;45672;51.612;5.536;2023-01-31T00:59:32;102291.47;;;2.19;100.00
59787;BME280;45672;51.612;5.536;2023-01-31T01:01:57;102281.97;;;2.16;100.00
59787;BME280;45672;51.612;5.536;2023-01-31T01:04:22;102287.31;;;2.13;100.00
59787;BME280;45672;51.612;5.536;2023-01-31T01:06:48;102283.09;;;2.11;100.00
59787;BME280;45672;51.612;5.536;2023-01-31T01:09:15;102281.44;;;2.08;100.00
59787;BME280;45672;51.612;5.536;2023-01-31T01:11:40;102284.84;;;2.10;100.00
59787;BME280;45672;51.612;5.536;2023-01-31T01:14:05;102269.00;;;2.12;100.00
59787;BME280;45672;51.612;5.536;2023-01-31T01:16:36;102265.47;;;2.13;100.00
59787;BME280;45672;51.612;5.536;2023-01-31T01:19:07;102255.19;;;2.08;100.00
59787;BME280;45672;51.612;5.536;2023-01-31T01:21:33;102250.00;;;2.06;100.00
59787;BME280;45672;51.612;5.536;2023-01-31T01:24:04;102246.47;;;2.08;100.00
59787;BME280;45672;51.612;5.536;2023-01-31T01:26:31;102234.25;;;2.06;100.00
59787;BME280;45672;51.612;5.536;2023-01-31T01:28:58;102245.53;;;2.09;100.00
59787;BME280;45672;51.612;5.536;2023-01-31T01:31:25;102240.25;;;2.09;100.00
59787;BME280;45672;51.612;5.536;2023-01-31T01:33:55;102233.25;;;2.09;100.00
59787;BME280;45672;51.612;5.536;2023-01-31T01:36:21;102240.13;;;2.12;100.00
59787;BME280;45672;51.612;5.536;2023-01-31T01:38:47;102240.88;;;2.15;100.00
59787;BME280;45672;51.612;5.536;2023-01-31T01:41:13;102244.19;;;2.19;100.00
59787;BME280;45672;51.612;5.536;2023-01-31T01:48:50;102243.50;;;2.15;100.00
59787;BME280;45672;51.612;5.536;2023-01-31T01:51:17;102233.97;;;2.13;100.00
59787;BME280;45672;51.612;5.536;2023-01-31T01:53:46;102235.69;;;2.14;100.00
59787;BME280;45672;51.612;5.536;2023-01-31T01:56:17;102235.81;;;2.11;100.00
59787;BME280;45672;51.612;5.536;2023-01-31T02:01:12;102235.09;;;2.07;100.00
59787;BME280;45672;51.612;5.536;2023-01-31T02:03:41;102229.06;;;2.05;100.00
59787;BME280;45672;51.612;5.536;2023-01-31T02:06:07;102235.22;;;2.04;100.00
59787;BME280;45672;51.612;5.536;2023-01-31T02:08:34;102236.94;;;2.05;100.00
59787;BME280;45672;51.612;5.536;2023-01-31T02:11:05;102238.63;;;2.06;100.00
59787;BME280;45672;51.612;5.536;2023-01-31T02:13:33;102242.97;;;2.07;100.00
59787;BME280;45672;51.612;5.536;2023-01-31T02:15:58;102247.09;;;2.13;100.00
59787;BME280;45672;51.612;5.536;2023-01-31T02:18:24;102250.56;;;2.13;100.00
59787;BME280;45672;51.612;5.536;2023-01-31T02:21:25;102247.09;;;2.13;100.00
59787;BME280;45672;51.612;5.536;2023-01-31T02:24:19;102248.06;;;2.10;100.00
59787;BME280;45672;51.612;5.536;2023-01-31T02:32:32;102261.28;;;2.09;100.00
59787;BME280;45672;51.612;5.536;2023-01-31T02:41:25;102251.91;;;2.23;100.00
59787;BME280;45672;51.612;5.536;2023-01-31T02:43:53;102251.75;;;2.27;100.00
59787;BME280;45672;51.612;5.536;2023-01-31T02:47:15;102245.47;;;2.31;100.00
59787;BME280;45672;51.612;5.536;2023-01-31T02:49:58;102238.41;;;2.31;100.00
59787;BME280;45672;51.612;5.536;2023-01-31T02:52:30;102235.72;;;2.33;100.00
59787;BME280;45672;51.612;5.536;2023-01-31T02:55:18;102237.38;;;2.35;100.00
59787;BME280;45672;51.612;5.536;2023-01-31T02:58:06;102238.09;;;2.39;100.00
59787;BME280;45672;51.612;5.536;2023-01-31T03:00:35;102228.38;;;2.41;100.00
59787;BME280;45672;51.612;5.536;2023-01-31T03:03:05;102231.06;;;2.39;100.00
59787;BME280;45672;51.612;5.536;2023-01-31T03:05:30;102244.00;;;2.44;100.00
59787;BME280;45672;51.612;5.536;2023-01-31T03:07:58;102235.28;;;2.44;100.00
59787;BME280;45672;51.612;5.536;2023-01-31T03:10:56;102225.66;;;2.42;100.00
59787;BME280;45672;51.612;5.536;2023-01-31T03:13:47;102229.22;;;2.41;100.00
59787;BME280;45672;51.612;5.536;2023-01-31T03:19:19;102231.06;;;2.39;100.00
59787;BME280;45672;51.612;5.536;2023-01-31T03:21:51;102230.16;;;2.40;100.00
59787;BME280;45672;51.612;5.536;2023-01-31T03:24:19;102226.66;;;2.40;100.00
59787;BME280;45672;51.612;5.536;2023-01-31T03:26:46;102240.59;;;2.42;100.00
59787;BME280;45672;51.612;5.536;2023-01-31T03:29:13;102222.19;;;2.42;100.00
59787;BME280;45672;51.612;5.536;2023-01-31T03:31:43;102216.81;;;2.45;100.00
59787;BME280;45672;51.612;5.536;2023-01-31T03:34:12;102214.25;;;2.44;100.00
59787;BME280;45672;51.612;5.536;2023-01-31T03:39:18;102207.06;;;2.47;100.00
59787;BME280;45672;51.612;5.536;2023-01-31T03:41:56;102215.75;;;2.49;100.00
59787;BME280;45672;51.612;5.536;2023-01-31T03:44:46;102212.22;;;2.50;100.00
59787;BME280;45672;51.612;5.536;2023-01-31T03:47:18;102206.88;;;2.52;100.00
59787;BME280;45672;51.612;5.536;2023-01-31T03:49:46;102201.56;;;2.53;100.00
59787;BME280;45672;51.612;5.536;2023-01-31T03:52:18;102194.59;;;2.52;100.00
59787;BME280;45672;51.612;5.536;2023-01-31T03:54:52;102194.59;;;2.52;100.00
59787;BME280;45672;51.612;5.536;2023-01-31T03:57:25;102191.88;;;2.54;100.00
59787;BME280;45672;51.612;5.536;2023-01-31T03:59:54;102194.44;;;2.55;100.00
59787;BME280;45672;51.612;5.536;2023-01-31T04:02:24;102200.56;;;2.56;100.00
59787;BME280;45672;51.612;5.536;2023-01-31T04:04:58;102185.50;;;2.59;100.00
59787;BME280;45672;51.612;5.536;2023-01-31T04:07:27;102186.31;;;2.62;100.00
59787;BME280;45672;51.612;5.536;2023-01-31T04:09:52;102186.31;;;2.62;100.00
59787;BME280;45672;51.612;5.536;2023-01-31T04:12:18;102183.59;;;2.63;100.00
59787;BME280;45672;51.612;5.536;2023-01-31T04:14:43;102180.19;;;2.61;100.00
59787;BME280;45672;51.612;5.536;2023-01-31T04:17:09;102199.44;;;2.62;100.00
59787;BME280;45672;51.612;5.536;2023-01-31T04:19:34;102188.22;;;2.58;100.00
59787;BME280;45672;51.612;5.536;2023-01-31T04:21:59;102180.25;;;2.59;100.00
59787;BME280;45672;51.612;5.536;2023-01-31T04:24:25;102188.13;;;2.59;100.00
59787;BME280;45672;51.612;5.536;2023-01-31T04:26:50;102180.25;;;2.59;100.00
59787;BME280;45672;51.612;5.536;2023-01-31T04:29:16;102182.88;;;2.59;100.00
59787;BME280;45672;51.612;5.536;2023-01-31T04:31:41;102175.16;;;2.56;100.00
59787;BME280;45672;51.612;5.536;2023-01-31T04:34:07;102170.72;;;2.57;100.00
59787;BME280;45672;51.612;5.536;2023-01-31T04:36:32;102169.16;;;2.53;100.00
59787;BME280;45672;51.612;5.536;2023-01-31T04:38:58;102179.66;;;2.53;100.00
59787;BME280;45672;51.612;5.536;2023-01-31T04:41:25;102175.38;;;2.52;100.00
59787;BME280;45672;51.612;5.536;2023-01-31T04:43:50;102177.03;;;2.53;100.00
59787;BME280;45672;51.612;5.536;2023-01-31T04:46:16;102184.00;;;2.54;100.00
59787;BME280;45672;51.612;5.536;2023-01-31T04:48:41;102175.28;;;2.53;100.00
59787;BME280;45672;51.612;5.536;2023-01-31T04:51:06;102169.22;;;2.51;100.00
59787;BME280;45672;51.612;5.536;2023-01-31T04:53:32;102164.94;;;2.50;100.00
59787;BME280;45672;51.612;5.536;2023-01-31T04:55:57;102157.16;;;2.47;100.00
59787;BME280;45672;51.612;5.536;2023-01-31T04:58:23;102150.41;;;2.41;100.00
59787;BME280;45672;51.612;5.536;2023-01-31T05:00:48;102146.03;;;2.42;100.00
59787;BME280;45672;51.612;5.536;2023-01-31T05:03:13;102140.84;;;2.40;100.00
59787;BME280;45672;51.612;5.536;2023-01-31T05:05:39;102147.09;;;2.38;100.00
59787;BME280;45672;51.612;5.536;2023-01-31T05:08:04;102145.38;;;2.37;100.00
59787;BME280;45672;51.612;5.536;2023-01-31T05:10:30;102148.97;;;2.34;100.00
59787;BME280;45672;51.612;5.536;2023-01-31T05:12:55;102147.22;;;2.35;100.00
59787;BME280;45672;51.612;5.536;2023-01-31T05:15:21;102150.56;;;2.38;100.00
59787;BME280;45672;51.612;5.536;2023-01-31T05:17:54;102145.13;;;2.43;100.00
59787;BME280;45672;51.612;5.536;2023-01-31T05:20:27;102136.94;;;2.49;100.00
59787;BME280;45672;51.612;5.536;2023-01-31T05:22:53;102141.13;;;2.53;100.00
59787;BME280;45672;51.612;5.536;2023-01-31T05:25:18;102137.53;;;2.56;100.00
59787;BME280;45672;51.612;5.536;2023-01-31T05:27:44;102135.66;;;2.58;100.00
59787;BME280;45672;51.612;5.536;2023-01-31T05:30:10;102132.97;;;2.59;100.00
59787;BME280;45672;51.612;5.536;2023-01-31T05:32:35;102139.94;;;2.61;100.00
59787;BME280;45672;51.612;5.536;2023-01-31T05:35:01;102135.50;;;2.61;100.00
59787;BME280;45672;51.612;5.536;2023-01-31T05:37:26;102130.19;;;2.63;100.00
59787;BME280;45672;51.612;5.536;2023-01-31T05:39:52;102125.72;;;2.65;100.00
59787;BME280;45672;51.612;5.536;2023-01-31T05:42:18;102120.31;;;2.68;100.00
59787;BME280;45672;51.612;5.536;2023-01-31T05:44:44;102110.56;;;2.70;100.00
59787;BME280;45672;51.612;5.536;2023-01-31T05:47:09;102123.59;;;2.73;100.00
59787;BME280;45672;51.612;5.536;2023-01-31T05:49:35;102110.31;;;2.76;100.00
59787;BME280;45672;51.612;5.536;2023-01-31T05:52:00;102109.34;;;2.77;100.00
59787;BME280;45672;51.612;5.536;2023-01-31T05:54:25;102109.22;;;2.80;100.00
59787;BME280;45672;51.612;5.536;2023-01-31T05:56:51;102112.69;;;2.81;100.00
59787;BME280;45672;51.612;5.536;2023-01-31T05:59:16;102109.91;;;2.84;100.00
59787;BME280;45672;51.612;5.536;2023-01-31T06:01:41;102111.72;;;2.83;100.00
59787;BME280;45672;51.612;5.536;2023-01-31T06:04:08;102115.97;;;2.86;100.00
59787;BME280;45672;51.612;5.536;2023-01-31T06:06:34;102117.66;;;2.87;100.00
59787;BME280;45672;51.612;5.536;2023-01-31T06:08:59;102110.56;;;2.89;100.00
59787;BME280;45672;51.612;5.536;2023-01-31T06:11:24;102114.03;;;2.89;100.00
59787;BME280;45672;51.612;5.536;2023-01-31T06:13:50;102111.47;;;2.88;100.00
59787;BME280;45672;51.612;5.536;2023-01-31T06:16:15;102112.19;;;2.91;100.00
59787;BME280;45672;51.612;5.536;2023-01-31T06:18:40;102117.38;;;2.93;100.00
59787;BME280;45672;51.612;5.536;2023-01-31T06:21:06;102113.88;;;2.92;100.00
59787;BME280;45672;51.612;5.536;2023-01-31T06:23:32;102106.78;;;2.95;100.00
59787;BME280;45672;51.612;5.536;2023-01-31T06:25:58;102106.78;;;2.95;100.00
59787;BME280;45672;51.612;5.536;2023-01-31T06:28:24;102104.91;;;2.97;100.00
59787;BME280;45672;51.612;5.536;2023-01-31T06:30:49;102111.81;;;2.99;100.00
59787;BME280;45672;51.612;5.536;2023-01-31T06:33:15;102108.34;;;2.99;100.00
59787;BME280;45672;51.612;5.536;2023-01-31T06:35:40;102105.63;;;3.00;100.00
59787;BME280;45672;51.612;5.536;2023-01-31T06:38:06;102110.91;;;3.00;100.00
59787;BME280;45672;51.612;5.536;2023-01-31T06:40:32;102103.84;;;3.01;100.00
59787;BME280;45672;51.612;5.536;2023-01-31T06:43:00;102096.81;;;3.01;100.00
59787;BME280;45672;51.612;5.536;2023-01-31T06:45:25;102085.38;;;3.02;100.00
59787;BME280;45672;51.612;5.536;2023-01-31T06:47:50;102069.59;;;3.02;100.00
59787;BME280;45672;51.612;5.536;2023-01-31T06:50:16;102073.09;;;3.03;100.00
59787;BME280;45672;51.612;5.536;2023-01-31T06:52:41;102072.94;;;3.06;100.00
59787;BME280;45672;51.612;5.536;2023-01-31T06:55:07;102070.31;;;3.06;100.00
59787;BME280;45672;51.612;5.536;2023-01-31T06:57:33;102083.44;;;3.06;100.00
59787;BME280;45672;51.612;5.536;2023-01-31T06:59:58;102087.72;;;3.08;100.00
59787;BME280;45672;51.612;5.536;2023-01-31T07:02:24;102098.16;;;3.10;100.00
59787;BME280;45672;51.612;5.536;2023-01-31T07:04:50;102090.19;;;3.12;100.00
59787;BME280;45672;51.612;5.536;2023-01-31T07:07:15;102087.56;;;3.12;100.00
59787;BME280;45672;51.612;5.536;2023-01-31T07:09:40;102078.72;;;3.13;100.00
59787;BME280;45672;51.612;5.536;2023-01-31T07:12:06;102067.28;;;3.14;100.00
59787;BME280;45672;51.612;5.536;2023-01-31T07:14:31;102068.16;;;3.14;100.00
59787;BME280;45672;51.612;5.536;2023-01-31T07:16:57;102061.94;;;3.15;100.00
59787;BME280;45672;51.612;5.536;2023-01-31T07:19:22;102068.16;;;3.14;100.00
59787;BME280;45672;51.612;5.536;2023-01-31T07:21:47;102068.06;;;3.16;100.00
59787;BME280;45672;51.612;5.536;2023-01-31T07:24:16;102065.38;;;3.17;100.00
59787;BME280;45672;51.612;5.536;2023-01-31T07:26:42;102050.50;;;3.16;100.00
59787;BME280;45672;51.612;5.536;2023-01-31T07:29:07;102048.03;;;3.13;100.00
59787;BME280;45672;51.612;5.536;2023-01-31T07:31:33;102052.06;;;3.20;100.00
59787;BME280;45672;51.612;5.536;2023-01-31T07:33:59;102043.00;;;3.26;100.00
59787;BME280;45672;51.612;5.536;2023-01-31T07:36:27;102053.13;;;3.34;100.00
59787;BME280;45672;51.612;5.536;2023-01-31T07:38:53;102056.22;;;3.42;100.00
59787;BME280;45672;51.612;5.536;2023-01-31T07:41:20;102059.41;;;3.49;100.00
59787;BME280;45672;51.612;5.536;2023-01-31T07:43:45;102064.41;;;3.53;100.00
59787;BME280;45672;51.612;5.536;2023-01-31T07:46:10;102059.78;;;3.58;100.00
59787;BME280;45672;51.612;5.536;2023-01-31T07:48:36;102052.56;;;3.62;100.00
59787;BME280;45672;51.612;5.536;2023-01-31T07:51:05;102047.03;;;3.67;100.00
59787;BME280;45672;51.612;5.536;2023-01-31T07:53:34;102036.38;;;3.70;100.00
59787;BME280;45672;51.612;5.536;2023-01-31T07:58:36;102040.38;;;3.77;100.00
59787;BME280;45672;51.612;5.536;2023-01-31T08:01:01;102032.16;;;3.83;100.00
59787;BME280;45672;51.612;5.536;2023-01-31T08:03:45;102035.47;;;3.87;100.00
59787;BME280;45672;51.612;5.536;2023-01-31T08:06:11;102030.97;;;3.89;100.00
59787;BME280;45672;51.612;5.536;2023-01-31T08:08:38;102035.22;;;3.91;100.00
59787;BME280;45672;51.612;5.536;2023-01-31T08:11:04;102040.16;;;3.97;100.00
59787;BME280;45672;51.612;5.536;2023-01-31T08:13:33;102028.53;;;4.02;100.00
59787;BME280;45672;51.612;5.536;2023-01-31T08:16:02;102021.41;;;4.04;100.00
59787;BME280;45672;51.612;5.536;2023-01-31T08:18:28;102031.94;;;4.04;100.00
59787;BME280;45672;51.612;5.536;2023-01-31T08:20:55;102021.25;;;4.07;100.00
59787;BME280;45672;51.612;5.536;2023-01-31T08:23:21;102035.16;;;4.09;100.00
59787;BME280;45672;51.612;5.536;2023-01-31T08:25:46;102024.53;;;4.10;100.00
59787;BME280;45672;51.612;5.536;2023-01-31T08:28:11;102019.97;;;4.14;100.00
59787;BME280;45672;51.612;5.536;2023-01-31T08:30:41;102021.69;;;4.15;100.00
59787;BME280;45672;51.612;5.536;2023-01-31T08:33:08;102015.44;;;4.16;100.00
59787;BME280;45672;51.612;5.536;2023-01-31T08:35:34;102007.47;;;4.18;100.00
59787;BME280;45672;51.612;5.536;2023-01-31T08:37:59;102010.00;;;4.19;100.00
59787;BME280;45672;51.612;5.536;2023-01-31T08:40:24;102005.53;;;4.21;100.00
59787;BME280;45672;51.612;5.536;2023-01-31T08:42:54;102003.56;;;4.25;100.00
59787;BME280;45672;51.612;5.536;2023-01-31T08:45:20;102011.22;;;4.29;100.00
59787;BME280;45672;51.612;5.536;2023-01-31T08:47:45;102006.63;;;4.33;100.00
59787;BME280;45672;51.612;5.536;2023-01-31T08:50:10;101991.69;;;4.34;100.00
59787;BME280;45672;51.612;5.536;2023-01-31T08:52:36;101995.81;;;4.38;100.00
59787;BME280;45672;51.612;5.536;2023-01-31T08:55:01;101994.69;;;4.42;100.00
59787;BME280;45672;51.612;5.536;2023-01-31T08:57:28;101976.94;;;4.45;100.00
59787;BME280;45672;51.612;5.536;2023-01-31T08:59:53;101986.28;;;4.51;100.00
59787;BME280;45672;51.612;5.536;2023-01-31T09:02:19;101977.75;;;4.62;100.00
59787;BME280;45672;51.612;5.536;2023-01-31T09:04:45;101982.50;;;4.71;100.00
59787;BME280;45672;51.612;5.536;2023-01-31T09:07:10;101979.25;;;4.82;100.00
59787;BME280;45672;51.612;5.536;2023-01-31T09:09:35;101990.47;;;4.86;100.00
59787;BME280;45672;51.612;5.536;2023-01-31T09:12:02;101988.00;;;4.82;100.00
59787;BME280;45672;51.612;5.536;2023-01-31T09:14:28;101977.56;;;4.81;100.00
59787;BME280;45672;51.612;5.536;2023-01-31T09:16:54;101973.22;;;4.80;100.00
59787;BME280;45672;51.612;5.536;2023-01-31T09:19:19;101983.66;;;4.81;100.00
59787;BME280;45672;51.612;5.536;2023-01-31T09:21:46;101968.53;;;4.85;100.00
59787;BME280;45672;51.612;5.536;2023-01-31T09:24:11;101949.69;;;4.91;100.00
59787;BME280;45672;51.612;5.536;2023-01-31T09:26:37;101948.69;;;5.08;100.00
59787;BME280;45672;51.612;5.536;2023-01-31T09:29:02;101963.31;;;5.43;100.00
59787;BME280;45672;51.612;5.536;2023-01-31T09:31:27;101965.22;;;5.69;100.00
59787;BME280;45672;51.612;5.536;2023-01-31T09:33:54;101972.47;;;5.80;100.00
59787;BME280;45672;51.612;5.536;2023-01-31T09:36:20;101962.94;;;5.78;100.00
59787;BME280;45672;51.612;5.536;2023-01-31T09:38:46;101978.59;;;5.81;100.00
59787;BME280;45672;51.612;5.536;2023-01-31T09:41:17;101962.38;;;5.87;100.00
59787;BME280;45672;51.612;5.536;2023-01-31T09:43:49;101958.78;;;5.88;100.00
59787;BME280;45672;51.612;5.536;2023-01-31T09:46:20;101956.13;;;5.88;100.00
59787;BME280;45672;51.612;5.536;2023-01-31T09:48:50;101948.31;;;5.86;100.00
59787;BME280;45672;51.612;5.536;2023-01-31T09:51:17;101955.38;;;5.86;100.00
59787;BME280;45672;51.612;5.536;2023-01-31T09:53:43;101954.25;;;5.90;100.00
59787;BME280;45672;51.612;5.536;2023-01-31T09:56:47;101962.28;;;6.03;100.00
59787;BME280;45672;51.612;5.536;2023-01-31T09:59:22;101945.09;;;6.10;100.00
59787;BME280;45672;51.612;5.536;2023-01-31T10:01:59;101953.38;;;6.18;100.00
59787;BME280;45672;51.612;5.536;2023-01-31T10:04:40;101953.16;;;6.21;100.00
59787;BME280;45672;51.612;5.536;2023-01-31T10:07:28;101954.50;;;6.14;100.00
59787;BME280;45672;51.612;5.536;2023-01-31T10:12:50;101951.22;;;5.96;100.00
59787;BME280;45672;51.612;5.536;2023-01-31T10:15:39;101951.72;;;6.03;100.00
59787;BME280;45672;51.612;5.536;2023-01-31T10:18:21;101939.59;;;6.13;100.00
59787;BME280;45672;51.612;5.536;2023-01-31T10:20:52;101942.91;;;6.17;100.00
59787;BME280;45672;51.612;5.536;2023-01-31T10:28:20;101956.50;;;5.96;100.00
59787;BME280;45672;51.612;5.536;2023-01-31T10:30:56;101957.53;;;5.94;100.00
59787;BME280;45672;51.612;5.536;2023-01-31T10:36:10;101954.47;;;5.87;100.00
59787;BME280;45672;51.612;5.536;2023-01-31T10:38:57;101964.72;;;5.92;100.00
59787;BME280;45672;51.612;5.536;2023-01-31T10:41:33;101942.66;;;5.93;100.00
59787;BME280;45672;51.612;5.536;2023-01-31T10:44:06;101942.38;;;5.97;100.00
59787;BME280;45672;51.612;5.536;2023-01-31T10:46:36;101943.59;;;6.06;100.00
59787;BME280;45672;51.612;5.536;2023-01-31T10:49:02;101948.00;;;6.20;100.00
59787;BME280;45672;51.612;5.536;2023-01-31T10:54:41;101938.50;;;6.30;100.00
59787;BME280;45672;51.612;5.536;2023-01-31T10:57:12;101928.28;;;6.38;100.00
59787;BME280;45672;51.612;5.536;2023-01-31T10:59:40;101932.94;;;6.48;100.00
59787;BME280;45672;51.612;5.536;2023-01-31T11:02:19;101917.84;;;6.50;100.00
59787;BME280;45672;51.612;5.536;2023-01-31T11:04:45;101922.50;;;6.59;100.00
59787;BME280;45672;51.612;5.536;2023-01-31T11:07:11;101918.25;;;6.56;100.00
59787;BME280;45672;51.612;5.536;2023-01-31T11:09:39;101914.22;;;6.51;100.00
59787;BME280;45672;51.612;5.536;2023-01-31T11:12:07;101917.84;;;6.50;100.00
59787;BME280;45672;51.612;5.536;2023-01-31T11:14:33;101906.13;;;6.54;100.00
59787;BME280;45672;51.612;5.536;2023-01-31T11:17:03;101899.34;;;6.50;100.00
59787;BME280;45672;51.612;5.536;2023-01-31T11:19:43;101902.72;;;6.52;100.00
59787;BME280;45672;51.612;5.536;2023-01-31T11:22:29;101899.56;;;6.60;100.00
59787;BME280;45672;51.612;5.536;2023-01-31T11:24:56;101886.16;;;6.63;100.00
59787;BME280;45672;51.612;5.536;2023-01-31T11:27:28;101882.56;;;6.64;100.00
59787;BME280;45672;51.612;5.536;2023-01-31T11:29:56;101890.78;;;6.59;100.00
59787;BME280;45672;51.612;5.536;2023-01-31T11:32:29;101888.56;;;6.53;100.00
59787;BME280;45672;51.612;5.536;2023-01-31T11:35:20;101890.25;;;6.54;100.00
59787;BME280;45672;51.612;5.536;2023-01-31T11:40:35;101895.53;;;6.54;100.00
59787;BME280;45672;51.612;5.536;2023-01-31T11:43:09;101896.38;;;6.54;100.00
59787;BME280;45672;51.612;5.536;2023-01-31T11:45:58;101896.28;;;6.56;100.00
59787;BME280;45672;51.612;5.536;2023-01-31T11:48:41;101885.81;;;6.54;100.00
59787;BME280;45672;51.612;5.536;2023-01-31T11:51:08;101881.78;;;6.49;100.00
59787;BME280;45672;51.612;5.536;2023-01-31T11:53:44;101871.31;;;6.47;100.00
59787;BME280;45672;51.612;5.536;2023-01-31T11:56:11;101886.13;;;6.50;100.00
59787;BME280;45672;51.612;5.536;2023-01-31T11:58:39;101881.03;;;6.47;100.00
59787;BME280;45672;51.612;5.536;2023-01-31T12:01:16;101879.13;;;6.49;100.00
59787;BME280;45672;51.612;5.536;2023-01-31T12:03:55;101875.75;;;6.47;100.00
59787;BME280;45672;51.612;5.536;2023-01-31T12:06:35;101875.75;;;6.47;100.00
59787;BME280;45672;51.612;5.536;2023-01-31T12:09:20;101878.47;;;6.45;100.00
59787;BME280;45672;51.612;5.536;2023-01-31T12:11:55;101872.25;;;6.46;100.00
59787;BME280;45672;51.612;5.536;2023-01-31T12:14:22;101880.19;;;6.46;100.00
59787;BME280;45672;51.612;5.536;2023-01-31T12:16:51;101874.88;;;6.46;100.00
59787;BME280;45672;51.612;5.536;2023-01-31T12:19:32;101871.31;;;6.47;100.00
59787;BME280;45672;51.612;5.536;2023-01-31T12:22:18;101873.75;;;6.50;100.00
59787;BME280;45672;51.612;5.536;2023-01-31T12:36:00;101858.72;;;6.11;100.00
59787;BME280;45672;51.612;5.536;2023-01-31T12:38:37;101866.13;;;6.06;100.00
59787;BME280;45672;51.612;5.536;2023-01-31T12:41:22;101865.56;;;6.00;100.00
59787;BME280;45672;51.612;5.536;2023-01-31T12:44:16;101870.00;;;6.00;100.00
59787;BME280;45672;51.612;5.536;2023-01-31T12:52:17;101854.31;;;5.97;100.00
59787;BME280;45672;51.612;5.536;2023-01-31T12:58:15;101850.09;;;5.94;100.00
59787;BME280;45672;51.612;5.536;2023-01-31T13:01:00;101853.56;;;5.95;100.00
59787;BME280;45672;51.612;5.536;2023-01-31T13:05:59;101849.13;;;5.95;100.00
59787;BME280;45672;51.612;5.536;2023-01-31T13:08:29;101849.13;;;5.95;100.00
59787;BME280;45672;51.612;5.536;2023-01-31T13:11:01;101845.53;;;5.96;100.00
59787;BME280;45672;51.612;5.536;2023-01-31T13:13:31;101844.63;;;5.97;100.00
59787;BME280;45672;51.612;5.536;2023-01-31T13:16:04;101841.19;;;5.95;100.00
59787;BME280;45672;51.612;5.536;2023-01-31T13:18:36;101840.97;;;6.00;100.00
59787;BME280;45672;51.612;5.536;2023-01-31T13:21:05;101847.06;;;6.00;100.00
59787;BME280;45672;51.612;5.536;2023-01-31T13:23:35;101847.91;;;6.01;100.00
59787;BME280;45672;51.612;5.536;2023-01-31T13:26:30;101844.13;;;6.05;100.00
59787;BME280;45672;51.612;5.536;2023-01-31T13:31:39;101839.41;;;6.10;100.00
59787;BME280;45672;51.612;5.536;2023-01-31T13:36:48;101847.00;;;6.15;100.00
59787;BME280;45672;51.612;5.536;2023-01-31T13:39:52;101839.91;;;6.15;100.00
59787;BME280;45672;51.612;5.536;2023-01-31T13:42:18;101837.00;;;6.20;100.00
59787;BME280;45672;51.612;5.536;2023-01-31T13:44:48;101841.97;;;6.25;100.00
59787;BME280;45672;51.612;5.536;2023-01-31T13:52:22;101828.03;;;6.35;100.00
59787;BME280;45672;51.612;5.536;2023-01-31T13:54:50;101826.03;;;6.39;100.00
59787;BME280;45672;51.612;5.536;2023-01-31T13:57:32;101823.06;;;6.44;100.00
59787;BME280;45672;51.612;5.536;2023-01-31T14:00:09;101823.59;;;6.49;100.00
59787;BME280;45672;51.612;5.536;2023-01-31T14:03:19;101831.97;;;6.55;100.00
59787;BME280;45672;51.612;5.536;2023-01-31T14:14:09;101825.66;;;6.71;100.00
59787;BME280;45672;51.612;5.536;2023-01-31T14:16:43;101838.88;;;6.71;100.00
59787;BME280;45672;51.612;5.536;2023-01-31T14:27:23;101862.13;;;6.79;100.00
59787;BME280;45672;51.612;5.536;2023-01-31T14:43:32;101878.31;;;6.74;100.00
59787;BME280;45672;51.612;5.536;2023-01-31T14:46:19;101875.78;;;6.72;100.00
59787;BME280;45672;51.612;5.536;2023-01-31T14:54:35;101893.22;;;6.75;100.00
59787;BME280;45672;51.612;5.536;2023-01-31T14:57:41;101893.22;;;6.75;100.00
59787;BME280;45672;51.612;5.536;2023-01-31T15:03:11;101891.22;;;6.79;100.00